Time;durP1;ratioP1;P1;durP2;ratioP2;P2;SDS_P1;SDS_P2;PMS_P1;PMS_P2;Temp;Humidity;BMP_temperature;BMP_pressure;BME280_temperature;BME280_humidity;BME280_pressure;Samples;Min_cycle;Max_cycle;Signal;HPM_P1;HPM_P2
2022/07/02 00:01:18;;;;;;;;;;;27.30;39.00;;;;;;5059518;28;1013;-37
2022/07/02 00:03:49;;;;;;;;;;;27.30;38.90;;;;;;5060578;28;1164;-37
2022/07/02 00:06:15;;;;;;;;;;;27.40;38.80;;;;;;5060746;28;1025;-37
2022/07/02 00:08:43;;;;;;;;;;;27.40;38.90;;;;;;5060920;28;1910;-37
2022/07/02 00:11:13;;;;;;;;;;;27.40;38.90;;;;;;5060611;28;1042;-38
2022/07/02 00:13:40;;;;;;;;;;;27.50;38.90;;;;;;5060910;28;1013;-38
2022/07/02 00:16:09;;;;;;;;;;;27.60;38.70;;;;;;5060817;28;993;-37
2022/07/02 00:18:37;;;;;;;;;;;27.60;38.70;;;;;;5060914;28;865;-38
2022/07/02 00:21:05;;;;;;;;;;;27.70;38.70;;;;;;5060332;28;977;-38
2022/07/02 00:23:31;;;;;;;;;;;27.60;38.60;;;;;;5060623;28;1049;-38
2022/07/02 00:26:02;;;;;;;;;;;27.70;38.60;;;;;;5060549;28;945;-38
2022/07/02 00:28:29;;;;;;;;;;;27.70;38.50;;;;;;5059872;28;1984;-38
2022/07/02 00:30:56;;;;;;;;;;;27.70;38.50;;;;;;5060556;28;1251;-38
2022/07/02 00:33:25;;;;;;;;;;;27.70;38.60;;;;;;5060285;28;889;-38
2022/07/02 00:35:53;;;;;;;;;;;27.70;38.70;;;;;;5060694;28;926;-38
2022/07/02 00:38:20;;;;;;;;;;;27.60;38.70;;;;;;5060439;28;1005;-38
2022/07/02 00:40:47;;;;;;;;;;;27.70;38.70;;;;;;5060141;28;985;-37
2022/07/02 00:43:14;;;;;;;;;;;27.60;38.70;;;;;;5060153;28;981;-38
2022/07/02 00:45:40;;;;;;;;;;;27.60;38.80;;;;;;5060588;28;961;-39
2022/07/02 00:48:07;;;;;;;;;;;27.60;38.90;;;;;;5060246;28;1922;-38
2022/07/02 00:50:34;;;;;;;;;;;27.60;38.80;;;;;;5060219;28;969;-38
2022/07/02 00:53:03;;;;;;;;;;;27.60;38.80;;;;;;5060235;28;1936;-38
2022/07/02 00:55:29;;;;;;;;;;;27.70;38.80;;;;;;5060047;28;980;-38
2022/07/02 00:57:57;;;;;;;;;;;27.70;38.80;;;;;;5060023;28;988;-38
2022/07/02 01:00:24;;;;;;;;;;;27.70;38.80;;;;;;5060119;28;973;-38
2022/07/02 01:02:51;;;;;;;;;;;27.70;38.80;;;;;;5060184;28;926;-38
2022/07/02 01:05:19;;;;;;;;;;;27.70;38.60;;;;;;5060427;28;957;-38
2022/07/02 01:07:47;;;;;;;;;;;27.80;38.70;;;;;;5059902;28;1898;-38
2022/07/02 01:10:16;;;;;;;;;;;27.80;38.60;;;;;;5059915;28;1052;-39
2022/07/02 01:12:45;;;;;;;;;;;27.80;38.60;;;;;;5060149;28;930;-38
2022/07/02 01:15:11;;;;;;;;;;;27.90;38.50;;;;;;5059973;28;1040;-37
2022/07/02 01:17:38;;;;;;;;;;;27.90;38.50;;;;;;5059727;28;985;-38
2022/07/02 01:20:06;;;;;;;;;;;27.90;38.40;;;;;;5059540;28;976;-39
2022/07/02 01:22:34;;;;;;;;;;;27.90;38.50;;;;;;5059169;28;981;-38
2022/07/02 01:25:01;;;;;;;;;;;27.90;38.50;;;;;;5058765;28;1012;-38
2022/07/02 01:27:28;;;;;;;;;;;27.90;38.40;;;;;;5059110;28;1898;-37
2022/07/02 01:29:54;;;;;;;;;;;27.90;38.40;;;;;;5059361;28;1036;-38
2022/07/02 01:32:22;;;;;;;;;;;28.00;38.40;;;;;;5059338;28;1009;-39
2022/07/02 01:34:49;;;;;;;;;;;28.00;38.30;;;;;;5058885;28;984;-38
2022/07/02 01:37:16;;;;;;;;;;;27.90;38.40;;;;;;5058838;28;989;-39
2022/07/02 01:39:45;;;;;;;;;;;27.90;38.40;;;;;;5059031;28;989;-38
2022/07/02 01:42:12;;;;;;;;;;;27.90;38.40;;;;;;5058790;28;972;-38
2022/07/02 01:44:39;;;;;;;;;;;27.90;38.40;;;;;;5059385;28;977;-38
2022/07/02 01:47:07;;;;;;;;;;;28.00;38.30;;;;;;5059023;28;1902;-39
2022/07/02 01:49:34;;;;;;;;;;;27.90;38.40;;;;;;5058637;28;941;-38
2022/07/02 01:52:01;;;;;;;;;;;27.90;38.30;;;;;;5059026;28;968;-39
2022/07/02 01:54:27;;;;;;;;;;;27.90;38.40;;;;;;5059108;28;993;-38
2022/07/02 01:56:56;;;;;;;;;;;27.90;38.40;;;;;;5058919;28;965;-38
2022/07/02 01:59:23;;;;;;;;;;;27.90;38.40;;;;;;5059457;28;1032;-40
2022/07/02 02:01:49;;;;;;;;;;;27.90;38.30;;;;;;5058797;28;977;-38
2022/07/02 02:04:16;;;;;;;;;;;27.90;38.30;;;;;;5058965;28;973;-37
2022/07/02 02:06:43;;;;;;;;;;;27.90;38.30;;;;;;5058962;28;933;-37
2022/07/02 02:09:10;;;;;;;;;;;27.90;38.40;;;;;;5057616;28;1902;-38
2022/07/02 02:11:36;;;;;;;;;;;27.80;38.50;;;;;;5058884;28;1313;-37
2022/07/02 02:14:04;;;;;;;;;;;27.90;38.40;;;;;;5058503;28;1020;-37
2022/07/02 02:16:32;;;;;;;;;;;27.90;38.40;;;;;;5058195;28;1048;-37
2022/07/02 02:18:59;;;;;;;;;;;27.80;38.40;;;;;;5058694;28;1776;-38
2022/07/02 02:21:27;;;;;;;;;;;27.80;38.60;;;;;;5058992;28;946;-37
2022/07/02 02:23:54;;;;;;;;;;;27.80;38.60;;;;;;5058555;28;950;-37
2022/07/02 02:26:20;;;;;;;;;;;27.90;38.40;;;;;;5058288;28;1017;-37
2022/07/02 02:28:47;;;;;;;;;;;27.90;38.40;;;;;;5058218;28;1893;-38
2022/07/02 02:31:15;;;;;;;;;;;27.80;38.50;;;;;;5058326;28;1155;-38
2022/07/02 02:33:42;;;;;;;;;;;27.80;38.50;;;;;;5058353;28;984;-39
2022/07/02 02:36:09;;;;;;;;;;;27.80;38.60;;;;;;5058993;28;980;-37
2022/07/02 02:38:36;;;;;;;;;;;27.70;38.60;;;;;;5058836;28;941;-38
2022/07/02 02:41:05;;;;;;;;;;;27.80;38.60;;;;;;5058719;28;1001;-38
2022/07/02 02:43:32;;;;;;;;;;;27.70;38.50;;;;;;5058254;28;942;-37
2022/07/02 02:45:59;;;;;;;;;;;27.80;38.50;;;;;;5057949;28;992;-42
2022/07/02 02:48:30;;;;;;;;;;;27.70;38.50;;;;;;5058524;28;1902;-42
2022/07/02 02:50:57;;;;;;;;;;;27.70;38.50;;;;;;5057632;28;965;-42
2022/07/02 02:53:24;;;;;;;;;;;27.70;38.50;;;;;;5058219;28;950;-40
2022/07/02 02:55:51;;;;;;;;;;;27.70;38.50;;;;;;5057660;28;2291;-42
2022/07/02 02:58:18;;;;;;;;;;;27.70;38.60;;;;;;5058037;28;938;-43
2022/07/02 03:00:44;;;;;;;;;;;27.70;38.50;;;;;;5057690;28;985;-41
2022/07/02 03:03:11;;;;;;;;;;;27.70;38.60;;;;;;5058200;28;925;-41
2022/07/02 03:05:40;;;;;;;;;;;27.70;38.50;;;;;;5058098;28;1032;-40
2022/07/02 03:08:06;;;;;;;;;;;27.70;38.60;;;;;;5054556;28;1905;-40
2022/07/02 03:10:33;;;;;;;;;;;27.60;38.50;;;;;;5057766;28;1015;-40
2022/07/02 03:13:00;;;;;;;;;;;27.60;38.60;;;;;;5057991;28;973;-41
2022/07/02 03:15:27;;;;;;;;;;;27.70;38.60;;;;;;5057761;28;1896;-42
2022/07/02 03:17:53;;;;;;;;;;;27.60;38.50;;;;;;5058630;28;1117;-40
2022/07/02 03:20:20;;;;;;;;;;;27.60;38.60;;;;;;5059188;28;984;-42
2022/07/02 03:22:48;;;;;;;;;;;27.50;38.60;;;;;;5062261;28;965;-42
2022/07/02 03:25:15;;;;;;;;;;;27.60;39.10;;;;;;5061917;28;977;-43
2022/07/02 03:27:42;;;;;;;;;;;27.60;38.60;;;;;;5061486;28;1910;-42
2022/07/02 03:30:09;;;;;;;;;;;27.60;38.70;;;;;;5062214;28;1206;-40
2022/07/02 03:32:36;;;;;;;;;;;27.50;38.70;;;;;;5062222;28;1069;-42
2022/07/02 03:35:03;;;;;;;;;;;27.60;38.70;;;;;;5061335;28;1028;-39
2022/07/02 03:37:29;;;;;;;;;;;27.50;38.70;;;;;;5061725;28;1007;-41
2022/07/02 03:39:58;;;;;;;;;;;27.50;39.80;;;;;;5061852;28;1036;-40
2022/07/02 03:42:25;;;;;;;;;;;27.50;38.70;;;;;;5061393;28;1004;-42
2022/07/02 03:44:52;;;;;;;;;;;27.50;38.70;;;;;;5061571;28;929;-42
2022/07/02 03:47:19;;;;;;;;;;;27.50;38.70;;;;;;5061539;28;976;-42
2022/07/02 03:49:45;;;;;;;;;;;27.50;38.70;;;;;;5061346;28;1979;-41
2022/07/02 03:52:12;;;;;;;;;;;27.50;38.70;;;;;;5061498;28;1024;-40
2022/07/02 03:54:39;;;;;;;;;;;27.50;38.60;;;;;;5061237;28;938;-40
2022/07/02 03:57:07;;;;;;;;;;;27.50;38.70;;;;;;5061498;28;1060;-39
2022/07/02 03:59:34;;;;;;;;;;;27.50;38.80;;;;;;5060967;28;985;-42
2022/07/02 04:02:00;;;;;;;;;;;27.50;38.70;;;;;;5061224;28;1011;-39
2022/07/02 04:04:27;;;;;;;;;;;27.50;38.80;;;;;;5060976;28;997;-41
2022/07/02 04:06:54;;;;;;;;;;;27.40;38.80;;;;;;5061121;28;911;-43
2022/07/02 04:09:20;;;;;;;;;;;27.40;38.90;;;;;;5060838;28;1981;-42
2022/07/02 04:11:47;;;;;;;;;;;27.40;38.70;;;;;;5061043;28;1028;-42
2022/07/02 04:14:15;;;;;;;;;;;27.50;38.70;;;;;;5060805;28;1029;-43
2022/07/02 04:16:42;;;;;;;;;;;27.50;38.70;;;;;;5061164;28;1298;-43
2022/07/02 04:19:09;;;;;;;;;;;27.40;38.70;;;;;;5060819;28;1021;-39
2022/07/02 04:21:36;;;;;;;;;;;27.50;38.80;;;;;;5060760;28;1021;-39
2022/07/02 04:24:02;;;;;;;;;;;27.50;38.80;;;;;;5060266;28;973;-41
2022/07/02 04:26:29;;;;;;;;;;;27.50;38.80;;;;;;5060551;28;933;-39
2022/07/02 04:28:55;;;;;;;;;;;27.50;38.70;;;;;;5060452;28;1979;-41
2022/07/02 04:31:23;;;;;;;;;;;27.50;38.70;;;;;;5059658;28;930;-39
2022/07/02 04:33:50;;;;;;;;;;;27.40;38.70;;;;;;5060343;28;1004;-43
2022/07/02 04:36:17;;;;;;;;;;;27.50;38.80;;;;;;5060335;28;965;-43
2022/07/02 04:38:44;;;;;;;;;;;27.40;38.70;;;;;;5060060;28;958;-41
2022/07/02 04:41:10;;;;;;;;;;;27.40;38.70;;;;;;5060450;28;1153;-39
2022/07/02 04:43:37;;;;;;;;;;;27.40;38.80;;;;;;5060837;28;996;-41
2022/07/02 04:46:04;;;;;;;;;;;27.40;40.00;;;;;;5060036;28;965;-42
2022/07/02 04:48:32;;;;;;;;;;;27.40;38.70;;;;;;5060249;28;1985;-42
2022/07/02 04:50:59;;;;;;;;;;;27.40;38.80;;;;;;5060266;28;1011;-40
2022/07/02 04:53:26;;;;;;;;;;;27.40;38.70;;;;;;5060223;28;1788;-43
2022/07/02 04:55:53;;;;;;;;;;;27.50;38.70;;;;;;5059945;28;1024;-42
2022/07/02 04:58:19;;;;;;;;;;;27.40;38.60;;;;;;5059448;28;913;-39
2022/07/02 05:00:46;;;;;;;;;;;27.40;38.70;;;;;;5059866;28;993;-43
2022/07/02 05:03:13;;;;;;;;;;;27.40;38.70;;;;;;5060067;28;1013;-40
2022/07/02 05:05:41;;;;;;;;;;;27.50;38.70;;;;;;5059541;28;1003;-42
2022/07/02 05:08:08;;;;;;;;;;;27.50;38.70;;;;;;5059286;28;1985;-39
2022/07/02 05:10:35;;;;;;;;;;;27.40;38.70;;;;;;5059126;28;1070;-41
2022/07/02 05:13:03;;;;;;;;;;;27.40;38.60;;;;;;5059887;28;914;-40
2022/07/02 05:15:30;;;;;;;;;;;27.40;38.60;;;;;;5059625;28;917;-39
2022/07/02 05:17:57;;;;;;;;;;;27.50;38.70;;;;;;5059117;28;1024;-42
2022/07/02 05:20:24;;;;;;;;;;;27.40;38.70;;;;;;5059727;28;941;-42
2022/07/02 05:22:52;;;;;;;;;;;27.50;38.80;;;;;;5059715;28;1105;-43
2022/07/02 05:25:19;;;;;;;;;;;27.50;38.70;;;;;;5058602;28;1038;-46
2022/07/02 05:27:45;;;;;;;;;;;27.50;38.80;;;;;;5058686;28;925;-39
2022/07/02 05:30:12;;;;;;;;;;;27.50;38.70;;;;;;5059443;28;1906;-40
2022/07/02 05:32:39;;;;;;;;;;;27.50;38.70;;;;;;5059195;28;1021;-39
2022/07/02 05:35:07;;;;;;;;;;;27.50;38.70;;;;;;5058873;28;1887;-40
2022/07/02 05:37:34;;;;;;;;;;;27.50;38.60;;;;;;5059297;28;993;-39
2022/07/02 05:40:02;;;;;;;;;;;27.50;38.50;;;;;;5058896;28;994;-39
2022/07/02 05:42:28;;;;;;;;;;;27.50;38.60;;;;;;5058909;28;1040;-39
2022/07/02 05:44:55;;;;;;;;;;;27.50;38.60;;;;;;5058668;28;1001;-39
2022/07/02 05:47:22;;;;;;;;;;;27.50;38.80;;;;;;5058362;28;978;-40
2022/07/02 05:49:49;;;;;;;;;;;27.50;38.70;;;;;;5058790;28;1967;-40
2022/07/02 05:52:18;;;;;;;;;;;27.60;38.80;;;;;;5059203;28;1007;-40
2022/07/02 05:54:45;;;;;;;;;;;27.50;38.70;;;;;;5058798;28;985;-40
2022/07/02 05:57:13;;;;;;;;;;;27.50;38.80;;;;;;5058661;28;977;-41
2022/07/02 05:59:39;;;;;;;;;;;27.50;38.70;;;;;;5058755;28;969;-39
2022/07/02 06:02:07;;;;;;;;;;;27.40;38.70;;;;;;5057992;28;953;-40
2022/07/02 06:04:34;;;;;;;;;;;27.50;38.70;;;;;;5058575;28;1162;-38
2022/07/02 06:09:46;;;;;;;;;;;27.60;38.70;;;;;;5058000;28;1984;-38
2022/07/02 06:12:14;;;;;;;;;;;27.60;38.50;;;;;;5058138;28;1023;-39
2022/07/02 06:14:41;;;;;;;;;;;27.60;38.70;;;;;;5057944;28;957;-39
2022/07/02 06:17:08;;;;;;;;;;;27.60;38.70;;;;;;5058027;28;1019;-39
2022/07/02 06:19:34;;;;;;;;;;;27.60;38.70;;;;;;5057991;28;1013;-39
2022/07/02 06:22:01;;;;;;;;;;;27.60;38.70;;;;;;5058319;28;1000;-38
2022/07/02 06:24:28;;;;;;;;;;;27.60;38.60;;;;;;5058381;28;937;-42
2022/07/02 06:26:55;;;;;;;;;;;27.60;38.60;;;;;;5057576;28;942;-36
2022/07/02 06:29:23;;;;;;;;;;;27.60;38.70;;;;;;5057816;28;1886;-38
2022/07/02 06:31:50;;;;;;;;;;;27.60;38.70;;;;;;5057779;28;992;-40
2022/07/02 06:34:17;;;;;;;;;;;27.60;38.70;;;;;;5058061;28;2086;-38
2022/07/02 06:36:43;;;;;;;;;;;27.60;38.60;;;;;;5058167;28;949;-37
2022/07/02 06:39:10;;;;;;;;;;;27.60;38.60;;;;;;5058341;28;949;-39
2022/07/02 06:44:23;;;;;;;;;;;27.60;39.90;;;;;;5057574;28;619;-45
2022/07/02 06:46:49;;;;;;;;;;;27.70;38.60;;;;;;5057757;28;978;-45
2022/07/02 06:49:18;;;;;;;;;;;27.70;38.50;;;;;;5057096;28;1914;-44
2022/07/02 06:51:45;;;;;;;;;;;27.60;38.60;;;;;;5056855;28;1343;-45
2022/07/02 06:54:12;;;;;;;;;;;27.70;38.40;;;;;;5056939;28;1033;-44
2022/07/02 06:56:39;;;;;;;;;;;27.70;38.50;;;;;;5056527;28;989;-44
2022/07/02 06:59:06;;;;;;;;;;;27.70;38.50;;;;;;5057953;28;981;-44
2022/07/02 07:01:34;;;;;;;;;;;27.60;38.60;;;;;;5057230;28;1005;-45
2022/07/02 07:04:01;;;;;;;;;;;27.60;38.80;;;;;;5056678;28;985;-45
2022/07/02 07:06:28;;;;;;;;;;;27.50;38.70;;;;;;5056789;28;1012;-45
2022/07/02 07:08:54;;;;;;;;;;;27.50;38.70;;;;;;5057427;28;1902;-44
2022/07/02 07:11:22;;;;;;;;;;;27.50;38.70;;;;;;5056726;28;996;-45
2022/07/02 07:13:49;;;;;;;;;;;27.50;38.70;;;;;;5057757;28;870;-45
2022/07/02 07:16:16;;;;;;;;;;;27.60;38.70;;;;;;5056856;28;945;-45
2022/07/02 07:18:45;;;;;;;;;;;27.60;38.70;;;;;;5056979;28;934;-44
2022/07/02 07:21:12;;;;;;;;;;;27.50;38.70;;;;;;5056656;28;1009;-45
2022/07/02 07:23:38;;;;;;;;;;;27.60;38.80;;;;;;5057319;28;1000;-44
2022/07/02 07:26:05;;;;;;;;;;;27.60;38.70;;;;;;5057336;28;953;-44
2022/07/02 07:28:32;;;;;;;;;;;27.50;38.70;;;;;;5057229;28;1021;-45
2022/07/02 07:30:59;;;;;;;;;;;27.50;38.90;;;;;;5056557;28;1984;-44
2022/07/02 07:33:26;;;;;;;;;;;27.50;38.70;;;;;;5055921;28;980;-45
2022/07/02 07:35:54;;;;;;;;;;;27.50;38.70;;;;;;5056586;28;1010;-45
2022/07/02 07:38:21;;;;;;;;;;;27.50;38.80;;;;;;5055943;28;924;-45
2022/07/02 07:40:48;;;;;;;;;;;27.40;38.90;;;;;;5056669;28;1029;-39
2022/07/02 07:43:14;;;;;;;;;;;27.50;38.60;;;;;;5056797;28;926;-39
2022/07/02 07:45:41;;;;;;;;;;;27.50;38.70;;;;;;5055357;28;1031;-41
2022/07/02 07:48:08;;;;;;;;;;;27.50;38.50;;;;;;5056513;28;1001;-41
2022/07/02 07:50:34;;;;;;;;;;;27.50;38.70;;;;;;5055659;28;1981;-39
2022/07/02 07:53:05;;;;;;;;;;;27.40;38.80;;;;;;5055479;28;985;-42
2022/07/02 07:55:33;;;;;;;;;;;27.40;38.90;;;;;;5057044;28;994;-44
2022/07/02 07:58:00;;;;;;;;;;;27.30;39.00;;;;;;5056293;28;989;-41
2022/07/02 08:00:27;;;;;;;;;;;27.30;38.90;;;;;;5056766;28;977;-39
2022/07/02 08:02:53;;;;;;;;;;;27.40;38.90;;;;;;5056550;28;1149;-38
2022/07/02 08:05:20;;;;;;;;;;;27.40;38.60;;;;;;5055605;28;1009;-39
2022/07/02 08:07:47;;;;;;;;;;;27.40;38.60;;;;;;5057559;28;957;-38
2022/07/02 08:10:15;;;;;;;;;;;27.40;38.80;;;;;;5059913;28;1910;-38
2022/07/02 08:12:42;;;;;;;;;;;27.40;38.50;;;;;;5060304;28;1027;-38
2022/07/02 08:15:09;;;;;;;;;;;27.40;38.70;;;;;;5058635;28;1001;-41
2022/07/02 08:17:37;;;;;;;;;;;27.50;38.40;;;;;;5057620;28;1022;-39
2022/07/02 08:20:05;;;;;;;;;;;27.40;38.40;;;;;;5058217;28;1009;-38
2022/07/02 08:22:32;;;;;;;;;;;27.50;38.20;;;;;;5058050;28;955;-39
2022/07/02 08:24:58;;;;;;;;;;;27.50;38.30;;;;;;5058114;28;945;-39
2022/07/02 08:27:27;;;;;;;;;;;27.50;38.50;;;;;;5058149;28;1010;-38
2022/07/02 08:29:53;;;;;;;;;;;27.50;38.40;;;;;;5057534;28;1911;-39
2022/07/02 08:32:20;;;;;;;;;;;27.40;38.40;;;;;;5059404;28;1029;-39
2022/07/02 08:34:47;;;;;;;;;;;27.40;38.60;;;;;;5057471;28;1016;-40
2022/07/02 08:37:14;;;;;;;;;;;27.50;38.40;;;;;;5057700;28;1013;-38
2022/07/02 08:39:41;;;;;;;;;;;27.40;38.20;;;;;;5058051;28;937;-39
2022/07/02 08:42:09;;;;;;;;;;;27.50;38.40;;;;;;5058004;28;1016;-38
2022/07/02 08:44:38;;;;;;;;;;;27.40;38.40;;;;;;5058633;28;1020;-38
2022/07/02 08:47:08;;;;;;;;;;;27.60;38.30;;;;;;5058331;28;1039;-39
2022/07/02 08:49:34;;;;;;;;;;;27.50;38.20;;;;;;5058713;28;1977;-39
2022/07/02 08:52:03;;;;;;;;;;;27.40;38.10;;;;;;5058887;28;930;-38
2022/07/02 08:54:31;;;;;;;;;;;27.50;39.10;;;;;;5055862;28;1002;-40
2022/07/02 08:56:59;;;;;;;;;;;27.40;37.90;;;;;;5057530;28;992;-40
2022/07/02 08:59:26;;;;;;;;;;;27.50;38.00;;;;;;5057870;28;1020;-39
2022/07/02 09:01:54;;;;;;;;;;;27.50;38.00;;;;;;5058444;28;1747;-38
2022/07/02 09:04:21;;;;;;;;;;;27.50;38.00;;;;;;5057512;28;953;-39
2022/07/02 09:06:48;;;;;;;;;;;27.50;37.90;;;;;;5058229;28;1048;-42
2022/07/02 09:09:16;;;;;;;;;;;27.50;37.80;;;;;;5058053;28;985;-41
2022/07/02 09:11:43;;;;;;;;;;;27.50;37.80;;;;;;5058035;28;1985;-39
2022/07/02 09:14:10;;;;;;;;;;;27.50;37.80;;;;;;5057096;28;953;-38
2022/07/02 09:16:38;;;;;;;;;;;27.50;37.60;;;;;;5056962;28;1040;-41
2022/07/02 09:19:06;;;;;;;;;;;27.50;37.60;;;;;;5056549;28;917;-41
2022/07/02 09:21:40;;;;;;;;;;;27.60;37.80;;;;;;5057008;28;1013;-42
2022/07/02 09:24:07;;;;;;;;;;;27.60;38.00;;;;;;5057246;28;958;-43
2022/07/02 09:26:33;;;;;;;;;;;27.70;38.00;;;;;;5057415;28;1008;-43
2022/07/02 09:29:01;;;;;;;;;;;27.70;38.80;;;;;;5057759;28;1253;-43
2022/07/02 09:31:28;;;;;;;;;;;27.80;37.60;;;;;;5055965;28;1906;-43
2022/07/02 09:33:55;;;;;;;;;;;27.80;37.30;;;;;;5056473;28;914;-40
2022/07/02 09:36:24;;;;;;;;;;;27.70;37.20;;;;;;5056253;28;997;-42
2022/07/02 09:38:52;;;;;;;;;;;27.70;36.90;;;;;;5057454;28;1029;-44
2022/07/02 09:41:20;;;;;;;;;;;27.70;37.20;;;;;;5055714;28;866;-43
2022/07/02 09:43:52;;;;;;;;;;;27.80;37.10;;;;;;5056175;28;1060;-42
2022/07/02 09:46:19;;;;;;;;;;;27.80;37.10;;;;;;5055894;28;1001;-41
2022/07/02 09:48:47;;;;;;;;;;;27.80;37.30;;;;;;5056461;28;945;-42
2022/07/02 09:51:14;;;;;;;;;;;27.80;37.70;;;;;;5055864;28;1967;-39
2022/07/02 09:53:48;;;;;;;;;;;27.80;37.90;;;;;;5055186;28;981;-42
2022/07/02 09:56:15;;;;;;;;;;;27.80;37.90;;;;;;5056783;28;974;-41
2022/07/02 09:58:42;;;;;;;;;;;27.80;38.10;;;;;;5056069;28;977;-39
2022/07/02 10:01:08;;;;;;;;;;;27.80;38.30;;;;;;5055794;28;957;-42
2022/07/02 10:03:45;;;;;;;;;;;27.80;38.20;;;;;;5056488;28;1005;-43
2022/07/02 10:06:13;;;;;;;;;;;27.90;38.30;;;;;;5056382;28;945;-39
2022/07/02 10:08:40;;;;;;;;;;;27.80;38.30;;;;;;5056552;28;1027;-42
2022/07/02 10:11:08;;;;;;;;;;;27.90;38.40;;;;;;5055925;28;1882;-43
2022/07/02 10:13:36;;;;;;;;;;;27.90;38.60;;;;;;5056845;28;1017;-40
2022/07/02 10:16:04;;;;;;;;;;;27.90;39.50;;;;;;5055534;28;1016;-45
2022/07/02 10:18:31;;;;;;;;;;;28.00;38.40;;;;;;5056485;28;857;-47
2022/07/02 10:20:59;;;;;;;;;;;28.10;37.80;;;;;;5055832;28;1023;-46
2022/07/02 10:23:27;;;;;;;;;;;28.10;37.90;;;;;;5055586;28;1000;-47
2022/07/02 10:25:55;;;;;;;;;;;28.10;37.80;;;;;;5056223;28;1031;-43
2022/07/02 10:28:26;;;;;;;;;;;28.10;37.90;;;;;;5056486;28;1004;-44
2022/07/02 10:30:54;;;;;;;;;;;28.10;38.10;;;;;;5055429;28;1984;-44
2022/07/02 10:33:25;;;;;;;;;;;28.10;37.70;;;;;;5055617;28;969;-44
2022/07/02 10:35:52;;;;;;;;;;;28.10;37.50;;;;;;5055834;28;1008;-39
2022/07/02 10:38:27;;;;;;;;;;;28.20;37.60;;;;;;5055626;28;969;-37
2022/07/02 10:40:54;;;;;;;;;;;28.30;37.20;;;;;;5054682;28;901;-38
2022/07/02 10:43:23;;;;;;;;;;;28.10;37.40;;;;;;5055878;28;969;-39
2022/07/02 10:46:01;;;;;;;;;;;28.10;37.50;;;;;;5055591;28;1000;-38
2022/07/02 10:48:28;;;;;;;;;;;28.00;37.40;;;;;;5056046;28;985;-37
2022/07/02 10:50:57;;;;;;;;;;;28.00;37.50;;;;;;5055991;28;1898;-39
2022/07/02 10:53:24;;;;;;;;;;;28.00;37.70;;;;;;5056496;28;953;-39
2022/07/02 10:55:58;;;;;;;;;;;28.10;37.40;;;;;;5054309;28;950;-39
2022/07/02 10:58:26;;;;;;;;;;;28.10;37.50;;;;;;5054265;28;1001;-39
2022/07/02 11:00:54;;;;;;;;;;;28.10;37.30;;;;;;5054806;28;1039;-40
2022/07/02 11:03:21;;;;;;;;;;;28.10;37.40;;;;;;5054523;28;997;-40
2022/07/02 11:05:56;;;;;;;;;;;28.10;37.20;;;;;;5053624;28;988;-41
2022/07/02 11:08:44;;;;;;;;;;;28.20;37.20;;;;;;5055257;28;969;-39
2022/07/02 11:11:11;;;;;;;;;;;28.20;37.10;;;;;;5053085;28;1975;-39
2022/07/02 11:13:41;;;;;;;;;;;28.30;36.80;;;;;;5054910;28;949;-39
2022/07/02 11:16:18;;;;;;;;;;;28.30;36.70;;;;;;5053983;28;974;-40
2022/07/02 11:18:46;;;;;;;;;;;28.30;36.60;;;;;;5054603;28;1016;-40
2022/07/02 11:21:12;;;;;;;;;;;28.20;36.60;;;;;;5054791;28;1012;-39
2022/07/02 11:23:40;;;;;;;;;;;28.30;36.40;;;;;;5055288;28;857;-38
2022/07/02 11:26:07;;;;;;;;;;;28.30;36.30;;;;;;5054940;28;970;-41
2022/07/02 11:28:33;;;;;;;;;;;28.30;36.40;;;;;;5055258;28;974;-41
2022/07/02 11:31:02;;;;;;;;;;;28.20;36.60;;;;;;5054208;28;1906;-40
2022/07/02 11:33:30;;;;;;;;;;;28.10;36.60;;;;;;5054891;28;985;-39
2022/07/02 11:35:56;;;;;;;;;;;28.10;36.90;;;;;;5054214;28;1004;-41
2022/07/02 11:38:23;;;;;;;;;;;28.10;36.60;;;;;;5053723;28;997;-42
2022/07/02 11:40:50;;;;;;;;;;;28.30;36.60;;;;;;5055766;28;996;-42
2022/07/02 11:43:17;;;;;;;;;;;28.30;36.70;;;;;;5058770;28;1016;-40
2022/07/02 11:45:44;;;;;;;;;;;28.20;36.40;;;;;;5057661;28;1020;-39
2022/07/02 11:48:18;;;;;;;;;;;28.30;36.40;;;;;;5059218;28;1013;-42
2022/07/02 11:50:55;;;;;;;;;;;28.30;36.40;;;;;;5058036;28;1898;-40
2022/07/02 11:53:21;;;;;;;;;;;28.20;36.50;;;;;;5059279;28;962;-46
2022/07/02 11:55:48;;;;;;;;;;;28.10;36.40;;;;;;5059478;28;1111;-44
2022/07/02 11:58:15;;;;;;;;;;;28.10;36.40;;;;;;5058557;28;905;-46
2022/07/02 12:00:43;;;;;;;;;;;28.20;36.60;;;;;;5057764;28;949;-46
2022/07/02 12:03:11;;;;;;;;;;;28.10;36.30;;;;;;5058389;28;1029;-47
2022/07/02 12:05:38;;;;;;;;;;;28.20;36.10;;;;;;5059164;28;2056;-47
2022/07/02 12:08:07;;;;;;;;;;;28.20;36.50;;;;;;5058456;28;997;-47
2022/07/02 12:10:39;;;;;;;;;;;28.20;36.00;;;;;;5057438;28;1981;-47
2022/07/02 12:13:07;;;;;;;;;;;28.20;36.20;;;;;;5059008;28;996;-47
2022/07/02 12:15:42;;;;;;;;;;;28.10;36.30;;;;;;5057963;28;1668;-48
2022/07/02 12:18:15;;;;;;;;;;;28.10;36.20;;;;;;5058362;28;1657;-48
2022/07/02 12:20:42;;;;;;;;;;;28.10;36.30;;;;;;5058793;28;1463;-48
2022/07/02 12:23:10;;;;;;;;;;;28.20;36.30;;;;;;5058933;28;938;-47
2022/07/02 12:25:43;;;;;;;;;;;28.10;36.10;;;;;;5057873;28;1029;-46
2022/07/02 12:30:53;;;;;;;;;;;28.30;35.80;;;;;;5057347;28;1902;-46
2022/07/02 12:33:30;;;;;;;;;;;28.30;36.10;;;;;;5058396;28;961;-46
2022/07/02 12:36:02;;;;;;;;;;;28.30;36.00;;;;;;5058741;28;1695;-45
2022/07/02 12:38:41;;;;;;;;;;;28.30;36.30;;;;;;5058782;28;1040;-45
2022/07/02 12:41:08;;;;;;;;;;;28.20;36.50;;;;;;5058759;28;1896;-44
2022/07/02 12:43:35;;;;;;;;;;;28.30;36.50;;;;;;5058389;28;933;-46
2022/07/02 12:46:09;;;;;;;;;;;28.40;36.60;;;;;;5058026;28;928;-45
2022/07/02 12:48:43;;;;;;;;;;;28.30;36.60;;;;;;5059309;28;1436;-47
2022/07/02 12:51:15;;;;;;;;;;;28.30;36.80;;;;;;5059108;28;1910;-46
2022/07/02 12:53:43;;;;;;;;;;;28.50;36.70;;;;;;5057091;28;921;-45
2022/07/02 12:56:11;;;;;;;;;;;28.50;36.40;;;;;;5059007;28;944;-47
2022/07/02 12:58:38;;;;;;;;;;;28.40;36.40;;;;;;5054668;28;1040;-46
2022/07/02 13:01:05;;;;;;;;;;;28.40;36.60;;;;;;5058467;28;1097;-46
2022/07/02 13:03:33;;;;;;;;;;;28.40;36.80;;;;;;5059485;28;921;-45
2022/07/02 13:06:01;;;;;;;;;;;28.50;37.00;;;;;;5058802;28;1005;-46
2022/07/02 13:08:28;;;;;;;;;;;28.70;36.40;;;;;;5058793;28;1893;-45
2022/07/02 13:10:58;;;;;;;;;;;28.80;36.10;;;;;;5057541;28;1898;-45
2022/07/02 13:13:25;;;;;;;;;;;28.70;36.30;;;;;;5058546;28;1005;-46
2022/07/02 13:15:52;;;;;;;;;;;28.60;36.20;;;;;;5058896;28;1005;-45
2022/07/02 13:18:19;;;;;;;;;;;28.60;36.30;;;;;;5058647;28;914;-46
2022/07/02 13:20:47;;;;;;;;;;;28.60;36.30;;;;;;5058410;28;940;-46
2022/07/02 13:23:14;;;;;;;;;;;28.60;36.30;;;;;;5058237;28;898;-46
2022/07/02 13:25:41;;;;;;;;;;;28.50;36.50;;;;;;5055960;28;1491;-45
2022/07/02 13:28:10;;;;;;;;;;;28.50;36.60;;;;;;5057880;28;1860;-45
2022/07/02 13:30:36;;;;;;;;;;;28.50;36.70;;;;;;5058503;28;1486;-46
2022/07/02 13:33:03;;;;;;;;;;;28.50;36.60;;;;;;5058544;28;1902;-46
2022/07/02 13:35:31;;;;;;;;;;;28.50;36.70;;;;;;5058262;28;1879;-46
2022/07/02 13:37:59;;;;;;;;;;;28.50;36.70;;;;;;5058150;28;1558;-46
2022/07/02 13:40:26;;;;;;;;;;;28.60;36.70;;;;;;5058487;28;742;-46
2022/07/02 13:42:53;;;;;;;;;;;28.60;36.70;;;;;;5058195;28;1158;-47
2022/07/02 13:45:21;;;;;;;;;;;28.70;37.00;;;;;;5057317;28;719;-46
2022/07/02 13:47:48;;;;;;;;;;;28.90;36.80;;;;;;5057996;28;906;-46
2022/07/02 13:50:22;;;;;;;;;;;28.90;36.40;;;;;;5058240;28;1612;-47
2022/07/02 13:52:51;;;;;;;;;;;29.00;35.80;;;;;;5058226;28;1906;-44
2022/07/02 13:55:18;;;;;;;;;;;28.90;35.40;;;;;;5057497;28;884;-39
2022/07/02 13:57:45;;;;;;;;;;;28.90;35.40;;;;;;5056411;28;1717;-45
2022/07/02 14:00:18;;;;;;;;;;;29.00;35.50;;;;;;5056726;28;870;-46
2022/07/02 14:02:52;;;;;;;;;;;28.90;35.70;;;;;;5058568;28;1054;-46
2022/07/02 14:05:18;;;;;;;;;;;28.80;35.80;;;;;;5057815;28;2070;-46
2022/07/02 14:07:45;;;;;;;;;;;28.80;35.60;;;;;;5056732;28;990;-46
2022/07/02 14:10:13;;;;;;;;;;;28.80;36.00;;;;;;5057520;28;973;-46
2022/07/02 14:12:39;;;;;;;;;;;28.90;35.80;;;;;;5057626;28;1980;-46
2022/07/02 14:15:09;;;;;;;;;;;28.90;35.90;;;;;;5057657;28;943;-46
2022/07/02 14:17:36;;;;;;;;;;;28.90;36.10;;;;;;5057463;28;1005;-46
2022/07/02 14:20:06;;;;;;;;;;;28.90;35.80;;;;;;5057941;28;906;-45
2022/07/02 14:22:34;;;;;;;;;;;28.90;35.90;;;;;;5057230;28;1667;-45
2022/07/02 14:25:02;;;;;;;;;;;28.90;35.80;;;;;;5057490;28;954;-46
2022/07/02 14:27:34;;;;;;;;;;;29.00;35.80;;;;;;5057468;28;1820;-46
2022/07/02 14:30:05;;;;;;;;;;;29.00;35.80;;;;;;5057062;28;1148;-46
2022/07/02 14:32:35;;;;;;;;;;;29.00;36.00;;;;;;5057945;28;1906;-46
2022/07/02 14:35:07;;;;;;;;;;;29.00;36.00;;;;;;5040039;28;1502;-45
2022/07/02 14:37:35;;;;;;;;;;;29.00;36.00;;;;;;5058052;28;945;-46
2022/07/02 14:40:02;;;;;;;;;;;29.00;37.20;;;;;;5056911;28;869;-45
2022/07/02 14:42:29;;;;;;;;;;;29.10;36.10;;;;;;5057164;28;1464;-46
2022/07/02 14:44:56;;;;;;;;;;;29.10;35.90;;;;;;5057190;28;1424;-46
2022/07/02 14:47:23;;;;;;;;;;;29.30;35.80;;;;;;5057597;28;874;-46